createdAt,value
2017-08-28T00:01:45.035Z,101242
2017-08-28T00:04:13.142Z,101242
2017-08-28T00:06:41.255Z,101231
2017-08-28T00:09:09.355Z,101236
2017-08-28T00:11:37.495Z,101239
2017-08-28T00:14:05.568Z,101236
2017-08-28T00:16:33.666Z,101245
2017-08-28T00:19:01.763Z,101238
2017-08-28T00:21:29.842Z,101235
2017-08-28T00:23:57.972Z,101244
2017-08-28T00:26:26.088Z,101237
2017-08-28T00:28:54.187Z,101233
2017-08-28T00:31:22.307Z,101231
2017-08-28T00:33:50.411Z,101229
2017-08-28T00:36:18.509Z,101232
2017-08-28T00:38:47.518Z,101232
2017-08-28T00:41:16.536Z,101222
2017-08-28T00:43:44.645Z,101218
2017-08-28T00:46:12.726Z,101218
2017-08-28T00:48:40.848Z,101228
2017-08-28T00:51:08.972Z,101232
2017-08-28T00:53:37.094Z,101212
2017-08-28T00:56:05.219Z,101217
2017-08-28T00:58:33.523Z,101218
2017-08-28T01:01:01.668Z,101209
2017-08-28T01:03:29.776Z,101204
2017-08-28T01:05:58.116Z,101190
2017-08-28T01:08:26.204Z,101207
2017-08-28T01:10:54.315Z,101202
2017-08-28T01:13:23.351Z,101198
2017-08-28T01:15:52.383Z,101208
2017-08-28T01:18:20.491Z,101199
2017-08-28T01:20:48.583Z,101199
2017-08-28T01:23:16.681Z,101203
2017-08-28T01:25:44.785Z,101191
2017-08-28T01:28:12.873Z,101198
2017-08-28T01:30:41.011Z,101197
2017-08-28T01:33:09.103Z,101202
2017-08-28T01:35:37.186Z,101203
2017-08-28T01:38:06.222Z,101200
2017-08-28T01:40:35.248Z,101194
2017-08-28T01:43:03.328Z,101189
2017-08-28T01:45:31.475Z,101193
2017-08-28T01:47:59.547Z,101193
2017-08-28T01:50:27.643Z,101195
2017-08-28T01:52:55.726Z,101195
2017-08-28T01:55:23.832Z,101196
2017-08-28T01:57:51.940Z,101208
2017-08-28T02:00:20.028Z,101196
2017-08-28T02:02:48.138Z,101200
2017-08-28T02:05:16.225Z,101206
2017-08-28T02:07:44.329Z,101188
2017-08-28T02:10:12.407Z,101207
2017-08-28T02:12:40.499Z,101194
2017-08-28T02:15:10.398Z,101195
2017-08-28T02:17:38.479Z,101196
2017-08-28T02:20:06.595Z,101195
2017-08-28T02:22:34.679Z,101199
2017-08-28T02:25:04.700Z,101201
2017-08-28T02:27:32.787Z,101191
2017-08-28T02:30:00.884Z,101195
2017-08-28T02:32:28.992Z,101199
2017-08-28T02:34:57.071Z,101197
2017-08-28T02:37:25.170Z,101193
2017-08-28T02:39:53.265Z,101192
2017-08-28T02:42:21.389Z,101185
2017-08-28T02:44:50.335Z,101186
2017-08-28T02:47:18.443Z,101189
2017-08-28T02:49:46.552Z,101190
2017-08-28T02:52:14.639Z,101186
2017-08-28T02:54:43.652Z,101190
2017-08-28T02:57:11.760Z,101188
2017-08-28T02:59:39.858Z,101189
2017-08-28T03:02:09.899Z,101183
2017-08-28T03:04:38.008Z,101179
2017-08-28T03:07:06.103Z,101184
2017-08-28T03:09:34.182Z,101163
2017-08-28T03:12:02.286Z,101190
2017-08-28T03:14:30.392Z,101196
2017-08-28T03:16:58.528Z,101197
2017-08-28T03:19:26.637Z,101191
2017-08-28T03:21:54.767Z,101178
2017-08-28T03:24:22.864Z,101182
2017-08-28T03:26:50.974Z,101178
2017-08-28T03:29:19.065Z,101185
2017-08-28T03:31:47.160Z,101183
2017-08-28T03:34:15.234Z,101184
2017-08-28T03:36:43.381Z,101184
2017-08-28T03:39:11.466Z,101194
2017-08-28T03:41:39.587Z,101193
2017-08-28T03:44:07.677Z,101192
2017-08-28T03:46:35.780Z,101200
2017-08-28T03:49:03.887Z,101207
2017-08-28T03:51:31.961Z,101194
2017-08-28T03:54:00.060Z,101195
2017-08-28T03:56:28.508Z,101193
2017-08-28T03:58:56.617Z,101201
2017-08-28T04:01:24.702Z,101199
2017-08-28T04:03:53.371Z,101193
2017-08-28T04:06:21.478Z,101200
2017-08-28T04:08:51.464Z,101197
2017-08-28T04:11:19.558Z,101199
2017-08-28T04:13:47.653Z,101198
2017-08-28T04:16:15.755Z,101192
2017-08-28T04:18:43.827Z,101196
2017-08-28T04:21:11.919Z,101201
2017-08-28T04:23:40.024Z,101196
2017-08-28T04:26:08.098Z,101192
2017-08-28T04:28:36.242Z,101197
2017-08-28T04:31:04.327Z,101197
2017-08-28T04:33:32.434Z,101197
2017-08-28T04:36:00.516Z,101197
2017-08-28T04:38:28.612Z,101197
2017-08-28T04:40:56.682Z,101196
2017-08-28T04:43:24.799Z,101199
2017-08-28T04:45:52.874Z,101203
2017-08-28T04:48:20.993Z,101198
2017-08-28T04:50:49.097Z,101203
2017-08-28T04:53:17.179Z,101194
2017-08-28T04:55:45.315Z,101198
2017-08-28T04:58:14.304Z,101207
2017-08-28T05:00:42.381Z,101197
2017-08-28T05:03:11.418Z,101198
2017-08-28T05:05:39.492Z,101206
2017-08-28T05:08:07.567Z,101206
2017-08-28T05:10:36.663Z,101202
2017-08-28T05:13:04.775Z,101201
2017-08-28T05:15:32.851Z,101200
2017-08-28T05:18:00.936Z,101207
2017-08-28T05:20:29.012Z,101201
2017-08-28T05:22:57.112Z,101198
2017-08-28T05:25:25.233Z,101194
2017-08-28T05:27:53.311Z,101201
2017-08-28T05:30:22.313Z,101198
2017-08-28T05:32:51.307Z,101197
2017-08-28T05:35:19.407Z,101199
2017-08-28T05:37:47.508Z,101202
2017-08-28T05:40:15.601Z,101199
2017-08-28T05:42:43.739Z,101199
2017-08-28T05:45:11.804Z,101197
2017-08-28T05:47:39.876Z,101208
2017-08-28T05:50:08.001Z,101207
2017-08-28T05:52:37.059Z,101197
2017-08-28T05:55:05.148Z,101202
2017-08-28T05:57:33.244Z,101208
2017-08-28T06:00:01.373Z,101214
2017-08-28T06:02:29.483Z,101213
2017-08-28T06:04:57.563Z,101201
2017-08-28T06:07:25.667Z,101206
2017-08-28T06:09:53.788Z,101205
2017-08-28T06:12:21.928Z,101198
2017-08-28T06:14:50.005Z,101198
2017-08-28T06:17:18.121Z,101196
2017-08-28T06:19:48.135Z,101199
2017-08-28T06:22:16.212Z,101198
2017-08-28T06:24:44.315Z,101196
2017-08-28T06:27:12.397Z,101207
2017-08-28T06:29:40.574Z,101204
2017-08-28T06:32:08.647Z,101194
2017-08-28T06:34:36.765Z,101197
2017-08-28T06:37:05.764Z,101200
2017-08-28T06:39:33.863Z,101197
2017-08-28T06:42:01.983Z,101201
2017-08-28T06:44:30.059Z,101202
2017-08-28T06:46:59.128Z,101198
2017-08-28T06:49:27.221Z,101206
2017-08-28T06:51:55.358Z,101200
2017-08-28T06:54:23.459Z,101201
2017-08-28T06:56:51.573Z,101186
2017-08-28T06:59:19.676Z,101208
2017-08-28T07:01:47.811Z,101201
2017-08-28T07:04:15.950Z,101199
2017-08-28T07:06:44.036Z,101217
2017-08-28T07:09:12.167Z,101204
2017-08-28T07:11:40.262Z,101212
2017-08-28T07:14:08.363Z,101214
2017-08-28T07:16:38.367Z,101211
2017-08-28T07:19:06.446Z,101213
2017-08-28T07:21:34.563Z,101225
2017-08-28T07:24:02.693Z,101219
2017-08-28T07:26:30.764Z,101225
2017-08-28T07:28:59.764Z,101219
2017-08-28T07:31:27.879Z,101225
2017-08-28T07:34:01.512Z,101232
2017-08-28T07:36:29.604Z,101232
2017-08-28T07:38:58.632Z,101220
2017-08-28T07:41:26.752Z,101227
2017-08-28T07:43:54.849Z,101221
2017-08-28T07:46:22.930Z,101232
2017-08-28T07:48:51.024Z,101229
2017-08-28T07:51:19.533Z,101231
2017-08-28T07:53:48.433Z,101229
2017-08-28T07:56:16.532Z,101237
2017-08-28T07:58:44.651Z,101225
2017-08-28T08:01:12.769Z,101233
2017-08-28T08:03:41.792Z,101223
2017-08-28T08:06:09.863Z,101230
2017-08-28T08:08:38.001Z,101226
2017-08-28T08:11:06.080Z,101228
2017-08-28T08:13:34.186Z,101233
2017-08-28T08:16:02.256Z,101233
2017-08-28T08:18:30.359Z,101232
2017-08-28T08:20:58.465Z,101241
2017-08-28T08:23:26.543Z,101236
2017-08-28T08:25:54.643Z,101250
2017-08-28T08:28:22.736Z,101245
2017-08-28T08:30:51.718Z,101244
2017-08-28T08:33:27.174Z,101236
2017-08-28T08:35:55.280Z,101238
2017-08-28T08:38:23.407Z,101231
2017-08-28T08:40:51.492Z,101245
2017-08-28T08:43:19.601Z,101205
2017-08-28T08:45:47.691Z,101247
2017-08-28T08:48:15.775Z,101241
2017-08-28T08:50:43.907Z,101237
2017-08-28T08:53:12.037Z,101249
2017-08-28T08:55:40.155Z,101249
2017-08-28T08:58:08.270Z,101251
2017-08-28T09:00:36.373Z,101241
2017-08-28T09:03:04.475Z,101241
2017-08-28T09:05:32.560Z,101216
2017-08-28T09:08:00.643Z,101233
2017-08-28T09:10:28.746Z,101234
2017-08-28T09:12:56.843Z,101234
2017-08-28T09:15:24.938Z,101223
2017-08-28T09:17:53.031Z,101225
2017-08-28T09:20:21.114Z,101223
2017-08-28T09:22:49.226Z,101226
2017-08-28T09:25:17.327Z,101227
2017-08-28T09:27:46.328Z,101229
2017-08-28T09:30:14.427Z,101222
2017-08-28T09:32:42.536Z,101229
2017-08-28T09:35:10.619Z,101228
2017-08-28T09:37:38.939Z,101228
2017-08-28T09:40:07.083Z,101222
2017-08-28T09:42:35.155Z,101223
2017-08-28T09:45:03.263Z,101220
2017-08-28T09:47:31.335Z,101229
2017-08-28T09:49:59.456Z,101225
2017-08-28T09:52:27.544Z,101229
2017-08-28T09:54:55.679Z,101229
2017-08-28T09:57:23.772Z,101231
2017-08-28T09:59:51.859Z,101230
2017-08-28T10:02:19.970Z,101223
2017-08-28T10:04:48.527Z,101228
2017-08-28T10:07:16.657Z,101226
2017-08-28T10:09:44.754Z,101231
2017-08-28T10:12:12.873Z,101224
2017-08-28T10:14:40.969Z,101205
2017-08-28T10:17:09.983Z,101227
2017-08-28T10:19:38.105Z,101230
2017-08-28T10:22:06.208Z,101218
2017-08-28T10:24:34.332Z,101215
2017-08-28T10:27:07.956Z,101215
2017-08-28T10:29:36.058Z,101219
2017-08-28T10:32:04.226Z,101224
2017-08-28T10:34:32.317Z,101211
2017-08-28T10:37:02.799Z,101213
2017-08-28T10:39:30.901Z,101211
2017-08-28T10:42:00.920Z,101203
2017-08-28T10:44:29.752Z,101206
2017-08-28T10:46:57.926Z,101201
2017-08-28T10:49:26.046Z,101200
2017-08-28T10:51:56.071Z,101201
2017-08-28T10:54:24.154Z,101192
2017-08-28T10:56:52.256Z,101194
2017-08-28T10:59:20.403Z,101192
2017-08-28T11:01:48.501Z,101190
2017-08-28T11:04:16.635Z,101190
2017-08-28T11:06:44.722Z,101196
2017-08-28T11:09:12.813Z,101198
2017-08-28T11:11:40.919Z,101194
2017-08-28T11:14:09.019Z,101189
2017-08-28T11:16:37.109Z,101184
2017-08-28T11:19:05.237Z,101189
2017-08-28T11:21:35.287Z,101174
2017-08-28T11:24:03.373Z,101183
2017-08-28T11:26:31.463Z,101183
2017-08-28T11:28:59.608Z,101186
2017-08-28T11:31:29.876Z,101180
2017-08-28T11:33:58.015Z,101172
2017-08-28T11:36:26.315Z,101169
2017-08-28T11:38:54.439Z,101172
2017-08-28T11:41:22.733Z,101168
2017-08-28T11:43:50.838Z,101180
2017-08-28T11:46:18.938Z,101171
2017-08-28T11:48:47.034Z,101170
2017-08-28T11:51:15.146Z,101164
2017-08-28T11:53:45.148Z,101169
2017-08-28T11:56:13.235Z,101167
2017-08-28T11:58:41.393Z,101147
2017-08-28T12:01:10.391Z,101164
2017-08-28T12:03:38.463Z,101168
2017-08-28T12:06:06.559Z,101162
2017-08-28T12:08:34.704Z,101168
2017-08-28T12:11:02.779Z,101166
2017-08-28T12:13:30.921Z,101164
2017-08-28T12:15:59.011Z,101162
2017-08-28T12:18:27.120Z,101153
2017-08-28T12:20:55.222Z,101135
2017-08-28T12:23:23.319Z,101141
2017-08-28T12:25:52.336Z,101143
2017-08-28T12:28:20.440Z,101143
2017-08-28T12:30:49.451Z,101145
2017-08-28T12:33:17.559Z,101139
2017-08-28T12:35:45.669Z,101140
2017-08-28T12:38:13.829Z,101135
2017-08-28T12:40:41.945Z,101134
2017-08-28T12:43:10.963Z,101144
2017-08-28T12:45:39.551Z,101139
2017-08-28T12:48:08.567Z,101137
2017-08-28T12:50:36.689Z,101139
2017-08-28T12:53:04.787Z,101141
2017-08-28T12:55:32.900Z,101136
2017-08-28T12:58:01.028Z,101132
2017-08-28T13:00:29.119Z,101129
2017-08-28T13:02:57.226Z,101132
2017-08-28T13:05:25.756Z,101117
2017-08-28T13:07:57.328Z,101126
2017-08-28T13:10:25.663Z,101125
2017-08-28T13:12:54.498Z,101115
2017-08-28T13:15:22.606Z,101118
2017-08-28T13:17:50.695Z,101118
2017-08-28T13:20:18.800Z,101126
2017-08-28T13:22:46.883Z,101112
2017-08-28T13:25:15.007Z,101109
2017-08-28T13:27:43.108Z,101113
2017-08-28T13:30:11.207Z,101122
2017-08-28T13:32:39.328Z,101110
2017-08-28T13:35:07.688Z,101117
2017-08-28T13:37:35.793Z,101120
2017-08-28T13:40:03.904Z,101122
2017-08-28T13:42:31.989Z,101118
2017-08-28T13:45:00.111Z,101108
2017-08-28T13:47:28.206Z,101112
2017-08-28T13:49:56.297Z,101106
2017-08-28T13:52:25.326Z,101109
2017-08-28T13:54:53.447Z,101096
2017-08-28T13:57:21.539Z,101092
2017-08-28T13:59:49.867Z,101092
2017-08-28T14:02:17.983Z,101094
2017-08-28T14:04:47.137Z,101093
2017-08-28T14:07:15.238Z,101095
2017-08-28T14:09:43.356Z,101091
2017-08-28T14:12:11.435Z,101104
2017-08-28T14:14:39.657Z,101102
2017-08-28T14:17:07.822Z,101093
2017-08-28T14:19:35.917Z,101086
2017-08-28T14:22:04.245Z,101082
2017-08-28T14:24:32.342Z,101084
2017-08-28T14:27:00.455Z,101084
2017-08-28T14:29:28.548Z,101076
2017-08-28T14:31:57.336Z,101082
2017-08-28T14:34:25.432Z,101079
2017-08-28T14:36:53.542Z,101078
2017-08-28T14:39:21.668Z,101075
2017-08-28T14:41:49.786Z,101078
2017-08-28T14:44:17.911Z,101075
2017-08-28T14:46:46.059Z,101069
2017-08-28T14:49:14.185Z,101065
2017-08-28T14:51:42.283Z,101062
2017-08-28T14:54:10.384Z,101059
2017-08-28T14:56:38.513Z,101069
2017-08-28T14:59:06.587Z,101058
2017-08-28T15:01:34.715Z,101068
2017-08-28T15:04:02.828Z,101065
2017-08-28T15:06:30.959Z,101066
2017-08-28T15:08:59.068Z,101065
2017-08-28T15:11:27.188Z,101064
2017-08-28T15:13:55.282Z,101060
2017-08-28T15:16:23.378Z,101057
2017-08-28T15:18:52.344Z,101053
2017-08-28T15:21:20.455Z,101059
2017-08-28T15:23:49.298Z,101051
2017-08-28T15:26:17.388Z,101041
2017-08-28T15:28:45.490Z,101054
2017-08-28T15:31:14.407Z,101051
2017-08-28T15:33:42.532Z,101047
2017-08-28T15:36:10.607Z,101044
2017-08-28T15:38:38.711Z,101038
2017-08-28T15:41:06.813Z,101033
2017-08-28T15:43:35.159Z,101032
2017-08-28T15:46:03.248Z,101038
2017-08-28T15:48:32.189Z,101036
2017-08-28T15:51:00.272Z,101036
2017-08-28T15:53:28.360Z,101028
2017-08-28T15:55:56.516Z,101025
2017-08-28T15:58:25.571Z,101028
2017-08-28T16:00:55.569Z,101025
2017-08-28T16:03:23.676Z,101030
2017-08-28T16:05:51.791Z,101028
2017-08-28T16:08:19.894Z,101031
2017-08-28T16:10:47.992Z,101025
2017-08-28T16:13:16.643Z,101021
2017-08-28T16:15:44.764Z,101024
2017-08-28T16:18:12.845Z,101027
2017-08-28T16:20:41.995Z,101024
2017-08-28T16:23:10.124Z,101021
2017-08-28T16:25:38.260Z,101025
2017-08-28T16:28:07.161Z,101016
2017-08-28T16:30:36.613Z,101017
2017-08-28T16:33:05.145Z,101023
2017-08-28T16:35:33.224Z,101022
2017-08-28T16:38:01.352Z,101026
2017-08-28T16:40:29.467Z,101018
2017-08-28T16:42:57.564Z,101016
2017-08-28T16:45:25.677Z,101010
2017-08-28T16:47:53.796Z,101018
2017-08-28T16:50:21.921Z,101016
2017-08-28T16:52:51.688Z,101014
2017-08-28T16:55:19.839Z,101014
2017-08-28T16:57:47.979Z,101009
2017-08-28T17:00:16.979Z,101008
2017-08-28T17:02:45.120Z,101012
2017-08-28T17:05:14.164Z,101017
2017-08-28T17:07:42.243Z,101016
2017-08-28T17:10:10.373Z,101006
2017-08-28T17:12:38.548Z,101005
2017-08-28T17:15:06.661Z,101013
2017-08-28T17:17:34.752Z,101016
2017-08-28T17:20:02.866Z,101017
2017-08-28T17:22:37.487Z,101018
2017-08-28T17:25:05.588Z,101026
2017-08-28T17:27:35.460Z,101015
2017-08-28T17:30:03.633Z,101022
2017-08-28T17:32:32.646Z,101019
2017-08-28T17:35:00.812Z,101019
2017-08-28T17:37:28.915Z,101021
2017-08-28T17:39:57.023Z,101018
2017-08-28T17:42:25.862Z,101019
2017-08-28T17:44:54.001Z,101015
2017-08-28T17:47:23.237Z,101011
2017-08-28T17:49:51.361Z,101017
2017-08-28T17:52:19.460Z,101016
2017-08-28T17:54:47.604Z,101019
2017-08-28T17:57:15.708Z,101022
2017-08-28T17:59:43.835Z,101014
2017-08-28T18:02:14.304Z,101015
2017-08-28T18:04:42.431Z,101016
2017-08-28T18:07:10.632Z,101022
2017-08-28T18:09:39.453Z,101018
2017-08-28T18:12:08.483Z,101009
2017-08-28T18:14:36.648Z,101012
2017-08-28T18:17:05.333Z,101010
2017-08-28T18:19:33.522Z,101014
2017-08-28T18:22:05.283Z,101023
2017-08-28T18:24:33.404Z,101014
2017-08-28T18:27:01.511Z,101021
2017-08-28T18:29:29.628Z,101019
2017-08-28T18:31:57.712Z,101024
2017-08-28T18:34:26.728Z,101019
2017-08-28T18:36:54.860Z,101026
2017-08-28T18:39:22.955Z,101033
2017-08-28T18:41:51.053Z,101036
2017-08-28T18:44:19.200Z,101037
2017-08-28T18:46:48.212Z,101034
2017-08-28T18:49:16.315Z,101033
2017-08-28T18:51:44.423Z,101028
2017-08-28T18:54:12.526Z,101035
2017-08-28T18:56:40.665Z,101020
2017-08-28T18:59:08.780Z,101026
2017-08-28T19:01:36.915Z,101026
2017-08-28T19:04:05.036Z,101035
2017-08-28T19:06:33.145Z,101042
2017-08-28T19:09:01.236Z,101043
2017-08-28T19:11:29.339Z,101040
2017-08-28T19:13:58.403Z,101044
2017-08-28T19:16:26.531Z,101039
2017-08-28T19:18:54.658Z,101046
2017-08-28T19:21:22.765Z,101039
2017-08-28T19:23:50.854Z,101038
2017-08-28T19:26:18.980Z,101024
2017-08-28T19:28:47.069Z,101028
2017-08-28T19:31:15.146Z,101024
2017-08-28T19:33:56.163Z,101025
2017-08-28T19:36:24.287Z,101029
2017-08-28T19:38:54.316Z,101022
2017-08-28T19:41:22.427Z,101021
2017-08-28T19:43:51.490Z,101016
2017-08-28T19:46:19.590Z,101025
2017-08-28T19:48:47.740Z,101023
2017-08-28T19:51:15.839Z,101024
2017-08-28T19:53:43.957Z,101019
2017-08-28T19:56:12.060Z,101028
2017-08-28T19:58:40.154Z,101023
2017-08-28T20:01:08.267Z,101017
2017-08-28T20:03:38.511Z,101028
2017-08-28T20:06:06.681Z,101030
2017-08-28T20:08:41.194Z,101030
2017-08-28T20:11:09.315Z,101031
2017-08-28T20:13:37.428Z,101026
2017-08-28T20:16:05.616Z,101021
2017-08-28T20:18:33.759Z,101020
2017-08-28T20:21:01.847Z,101023
2017-08-28T20:23:29.954Z,101019
2017-08-28T20:25:58.052Z,101020
2017-08-28T20:28:26.171Z,101030
2017-08-28T20:30:54.292Z,101036
2017-08-28T20:33:22.424Z,101029
2017-08-28T20:35:50.539Z,101022
2017-08-28T20:38:19.398Z,101022
2017-08-28T20:40:47.479Z,101018
2017-08-28T20:43:15.572Z,101018
2017-08-28T20:45:43.693Z,101026
2017-08-28T20:48:11.792Z,101020
2017-08-28T20:50:39.923Z,101015
2017-08-28T20:53:08.008Z,101021
2017-08-28T20:55:37.593Z,101010
2017-08-28T20:58:05.716Z,101021
2017-08-28T21:00:33.842Z,101017
2017-08-28T21:03:01.965Z,101022
2017-08-28T21:05:30.838Z,101023
2017-08-28T21:07:58.959Z,101008
2017-08-28T21:10:27.313Z,101014
2017-08-28T21:12:56.335Z,101002
2017-08-28T21:15:24.432Z,100997
2017-08-28T21:17:52.543Z,101003
2017-08-28T21:20:20.665Z,101011
2017-08-28T21:22:48.747Z,101012
2017-08-28T21:25:16.847Z,101005
2017-08-28T21:27:44.943Z,101004
2017-08-28T21:30:14.880Z,101000
2017-08-28T21:32:42.986Z,101004
2017-08-28T21:35:11.071Z,101001
2017-08-28T21:37:39.196Z,101003
2017-08-28T21:40:09.258Z,101000
2017-08-28T21:42:39.272Z,100996
2017-08-28T21:45:07.402Z,100998
2017-08-28T21:47:36.442Z,101002
2017-08-28T21:50:04.552Z,100994
2017-08-28T21:52:32.666Z,100995
2017-08-28T21:55:02.667Z,100999
2017-08-28T21:57:30.798Z,100996
2017-08-28T21:59:58.892Z,100938
2017-08-28T22:02:26.989Z,101005
2017-08-28T22:04:55.328Z,100995
2017-08-28T22:07:23.405Z,101006
2017-08-28T22:09:51.511Z,100997
2017-08-28T22:12:19.624Z,100988
2017-08-28T22:14:47.812Z,100997
2017-08-28T22:17:16.636Z,100988
2017-08-28T22:19:44.755Z,100994
2017-08-28T22:22:12.839Z,100992
2017-08-28T22:24:40.949Z,100993
2017-08-28T22:27:09.035Z,100991
2017-08-28T22:29:37.120Z,100992
2017-08-28T22:32:05.253Z,100997
2017-08-28T22:34:33.352Z,100999
2017-08-28T22:37:01.476Z,100987
2017-08-28T22:39:31.463Z,100993
2017-08-28T22:41:59.578Z,100997
2017-08-28T22:44:27.655Z,100994
2017-08-28T22:46:55.760Z,100989
2017-08-28T22:49:24.772Z,100980
2017-08-28T22:54:27.087Z,100989
2017-08-28T22:56:55.192Z,100987
2017-08-28T22:59:23.259Z,100963
2017-08-28T23:01:51.359Z,100976
2017-08-28T23:04:20.298Z,100978
2017-08-28T23:06:48.418Z,100980
2017-08-28T23:09:16.536Z,100981
2017-08-28T23:11:44.630Z,100980
2017-08-28T23:14:12.789Z,100977
2017-08-28T23:16:41.772Z,100976
2017-08-28T23:19:09.872Z,100977
2017-08-28T23:21:38.859Z,100971
2017-08-28T23:24:06.971Z,100983
2017-08-28T23:26:35.094Z,100965
2017-08-28T23:29:03.187Z,100973
2017-08-28T23:31:31.307Z,100966
2017-08-28T23:34:00.303Z,100973
2017-08-28T23:36:28.429Z,100965
2017-08-28T23:38:56.541Z,100962
2017-08-28T23:41:24.636Z,100953
2017-08-28T23:43:52.748Z,100960
2017-08-28T23:46:20.849Z,100961
2017-08-28T23:48:48.955Z,100958
2017-08-28T23:51:17.047Z,100960
2017-08-28T23:53:45.140Z,100958
2017-08-28T23:56:13.239Z,100960
2017-08-28T23:58:41.344Z,100963
